createdAt,value
2017-06-14T00:01:59.772Z,6.43
2017-06-14T00:04:26.182Z,6.27
2017-06-14T00:06:52.579Z,6.27
2017-06-14T00:09:19.099Z,6.60
2017-06-14T00:11:45.571Z,6.03
2017-06-14T00:14:12.039Z,5.60
2017-06-14T00:16:38.468Z,6.47
2017-06-14T00:19:04.924Z,6.47
2017-06-14T00:21:31.348Z,5.67
2017-06-14T00:23:57.749Z,5.77
2017-06-14T00:26:24.156Z,5.60
2017-06-14T00:28:50.586Z,6.03
2017-06-14T00:31:17.029Z,6.10
2017-06-14T00:33:43.446Z,5.60
2017-06-14T00:36:09.843Z,5.73
2017-06-14T00:38:37.046Z,5.60
2017-06-14T00:41:03.458Z,6.17
2017-06-14T00:43:29.828Z,5.70
2017-06-14T00:45:56.228Z,5.43
2017-06-14T00:48:22.625Z,6.40
2017-06-14T00:50:48.967Z,6.27
2017-06-14T00:53:15.416Z,5.97
2017-06-14T00:55:41.842Z,6.00
2017-06-14T00:58:08.359Z,6.37
2017-06-14T01:00:34.865Z,5.93
2017-06-14T01:03:02.020Z,5.97
2017-06-14T01:05:28.395Z,6.23
2017-06-14T01:07:54.799Z,5.30
2017-06-14T01:10:21.245Z,5.77
2017-06-14T01:12:47.624Z,6.27
2017-06-14T01:15:14.083Z,5.77
2017-06-14T01:17:40.515Z,6.93
2017-06-14T01:20:07.656Z,5.77
2017-06-14T01:22:34.052Z,6.00
2017-06-14T01:25:00.478Z,6.40
2017-06-14T01:27:27.654Z,5.73
2017-06-14T01:29:54.044Z,6.20
2017-06-14T01:32:20.497Z,6.10
2017-06-14T01:34:47.721Z,6.17
2017-06-14T01:37:14.196Z,7.07
2017-06-14T01:39:40.641Z,6.07
2017-06-14T01:42:07.096Z,6.10
2017-06-14T01:44:33.607Z,6.80
2017-06-14T01:47:00.019Z,6.43
2017-06-14T01:49:26.524Z,7.20
2017-06-14T01:51:52.912Z,6.50
2017-06-14T01:54:19.325Z,6.63
2017-06-14T01:56:45.708Z,6.87
2017-06-14T01:59:12.130Z,5.68
2017-06-14T02:01:38.585Z,5.97
2017-06-14T02:04:04.957Z,6.97
2017-06-14T02:06:31.368Z,6.65
2017-06-14T02:08:57.756Z,7.00
2017-06-14T02:11:24.196Z,7.53
2017-06-14T02:13:51.095Z,6.87
2017-06-14T02:16:17.528Z,7.00
2017-06-14T02:18:43.996Z,6.72
2017-06-14T02:21:10.401Z,6.70
2017-06-14T02:23:37.590Z,6.45
2017-06-14T02:26:03.967Z,6.55
2017-06-14T02:28:30.343Z,6.50
2017-06-14T02:30:58.277Z,7.10
2017-06-14T02:33:24.801Z,7.30
2017-06-14T02:35:51.164Z,7.90
2017-06-14T02:38:17.660Z,7.18
2017-06-14T02:40:44.076Z,7.82
2017-06-14T02:43:10.476Z,7.62
2017-06-14T02:45:36.993Z,7.70
2017-06-14T02:48:03.415Z,7.50
2017-06-14T02:50:29.888Z,8.52
2017-06-14T02:52:56.444Z,8.00
2017-06-14T02:55:22.860Z,7.82
2017-06-14T02:57:49.268Z,8.02
2017-06-14T03:00:15.711Z,7.15
2017-06-14T03:02:42.143Z,8.93
2017-06-14T03:05:08.876Z,7.93
2017-06-14T03:07:36.067Z,8.07
2017-06-14T03:10:02.476Z,8.10
2017-06-14T03:12:28.887Z,8.80
2017-06-14T03:14:55.304Z,7.35
2017-06-14T03:17:21.727Z,8.45
2017-06-14T03:19:48.176Z,7.60
2017-06-14T03:22:14.565Z,9.10
2017-06-14T03:24:41.064Z,8.75
2017-06-14T03:27:07.448Z,8.63
2017-06-14T03:29:33.895Z,8.43
2017-06-14T03:32:01.013Z,8.07
2017-06-14T03:34:27.418Z,8.97
2017-06-14T03:36:53.873Z,8.20
2017-06-14T03:39:20.293Z,9.55
2017-06-14T03:41:46.788Z,8.65
2017-06-14T03:44:13.231Z,8.32
2017-06-14T03:46:39.655Z,8.65
2017-06-14T03:49:06.067Z,8.95
2017-06-14T03:51:32.567Z,9.38
2017-06-14T03:53:59.667Z,8.75
2017-06-14T03:56:26.055Z,8.70
2017-06-14T03:58:52.793Z,8.77
2017-06-14T04:01:19.227Z,8.45
2017-06-14T04:03:45.612Z,8.48
2017-06-14T04:06:12.096Z,7.80
2017-06-14T04:08:38.506Z,8.07
2017-06-14T04:11:05.648Z,9.70
2017-06-14T04:13:32.080Z,9.38
2017-06-14T04:15:58.475Z,8.63
2017-06-14T04:18:24.936Z,7.90
2017-06-14T04:20:51.408Z,9.13
2017-06-14T04:23:18.544Z,8.40
2017-06-14T04:25:45.840Z,8.57
2017-06-14T04:28:12.979Z,8.18
2017-06-14T04:30:39.348Z,9.38
2017-06-14T04:33:06.468Z,8.63
2017-06-14T04:35:32.899Z,9.50
2017-06-14T04:37:59.315Z,8.70
2017-06-14T04:40:25.735Z,9.50
2017-06-14T04:42:52.575Z,8.23
2017-06-14T04:45:19.009Z,8.30
2017-06-14T04:47:45.447Z,8.98
2017-06-14T04:50:11.867Z,9.10
2017-06-14T04:52:38.235Z,8.97
2017-06-14T04:55:04.663Z,7.75
2017-06-14T04:57:31.131Z,8.60
2017-06-14T04:59:57.545Z,8.30
2017-06-14T05:02:23.972Z,7.85
2017-06-14T05:04:50.406Z,7.93
2017-06-14T05:07:16.784Z,8.30
2017-06-14T05:09:43.208Z,8.03
2017-06-14T05:12:09.591Z,7.70
2017-06-14T05:14:35.968Z,7.90
2017-06-14T05:17:02.391Z,8.20
2017-06-14T05:19:28.802Z,7.80
2017-06-14T05:21:55.197Z,8.40
2017-06-14T05:24:21.615Z,7.57
2017-06-14T05:26:48.035Z,7.37
2017-06-14T05:29:14.572Z,8.47
2017-06-14T05:31:40.992Z,7.43
2017-06-14T05:34:07.468Z,8.60
2017-06-14T05:36:33.839Z,8.73
2017-06-14T05:39:00.256Z,8.57
2017-06-14T05:41:26.692Z,9.60
2017-06-14T05:43:53.280Z,9.57
2017-06-14T05:46:19.731Z,8.10
2017-06-14T05:48:46.160Z,9.50
2017-06-14T05:51:12.635Z,7.93
2017-06-14T05:53:39.095Z,10.30
2017-06-14T05:56:05.583Z,8.70
2017-06-14T05:58:31.989Z,9.13
2017-06-14T06:00:58.452Z,8.27
2017-06-14T06:03:24.883Z,8.20
2017-06-14T06:05:51.380Z,7.87
2017-06-14T06:08:18.543Z,7.13
2017-06-14T06:10:45.008Z,7.63
2017-06-14T06:13:11.403Z,6.83
2017-06-14T06:15:37.865Z,6.40
2017-06-14T06:18:04.278Z,7.03
2017-06-14T06:20:30.688Z,7.20
2017-06-14T06:22:57.120Z,7.00
2017-06-14T06:25:23.545Z,6.77
2017-06-14T06:27:49.940Z,6.17
2017-06-14T06:30:16.371Z,5.90
2017-06-14T06:32:43.007Z,5.80
2017-06-14T06:35:09.391Z,6.23
2017-06-14T06:37:36.212Z,6.17
2017-06-14T06:40:02.656Z,6.00
2017-06-14T06:42:29.020Z,6.43
2017-06-14T06:44:55.447Z,6.00
2017-06-14T06:47:21.824Z,6.63
2017-06-14T06:49:48.203Z,7.50
2017-06-14T06:52:14.607Z,6.90
2017-06-14T06:54:41.007Z,5.93
2017-06-14T06:57:07.429Z,6.20
2017-06-14T06:59:33.831Z,6.20
2017-06-14T07:02:00.295Z,4.80
2017-06-14T07:04:26.812Z,6.13
2017-06-14T07:06:53.214Z,5.57
2017-06-14T07:09:19.700Z,4.90
2017-06-14T07:11:46.112Z,5.87
2017-06-14T07:14:13.316Z,6.07
2017-06-14T07:16:39.764Z,6.30
2017-06-14T07:19:06.148Z,6.37
2017-06-14T07:21:32.539Z,5.63
2017-06-14T07:23:58.903Z,6.00
2017-06-14T07:26:25.991Z,6.73
2017-06-14T07:28:52.387Z,5.60
2017-06-14T07:31:18.824Z,5.70
2017-06-14T07:33:45.242Z,5.33
2017-06-14T07:36:11.671Z,5.57
2017-06-14T07:38:38.085Z,6.70
2017-06-14T07:41:04.537Z,5.70
2017-06-14T07:43:31.028Z,5.70
2017-06-14T07:45:57.467Z,5.60
2017-06-14T07:48:23.838Z,5.30
2017-06-14T07:50:50.258Z,5.70
2017-06-14T07:53:16.631Z,4.93
2017-06-14T07:55:43.065Z,4.90
2017-06-14T07:58:09.803Z,5.33
2017-06-14T08:00:36.222Z,4.90
2017-06-14T08:03:02.700Z,5.03
2017-06-14T08:05:29.067Z,4.93
2017-06-14T08:07:55.848Z,5.20
2017-06-14T08:10:22.203Z,5.47
2017-06-14T08:12:48.535Z,5.90
2017-06-14T08:15:14.925Z,5.27
2017-06-14T08:17:41.245Z,4.27
2017-06-14T08:20:07.585Z,5.10
2017-06-14T08:22:34.019Z,4.77
2017-06-14T08:25:00.424Z,4.80
2017-06-14T08:27:26.775Z,5.40
2017-06-14T08:29:53.201Z,5.10
2017-06-14T08:32:20.328Z,4.63
2017-06-14T08:34:47.420Z,5.60
2017-06-14T08:37:13.831Z,4.57
2017-06-14T08:39:40.272Z,5.17
2017-06-14T08:42:06.628Z,4.57
2017-06-14T08:44:33.062Z,5.67
2017-06-14T08:46:59.478Z,4.83
2017-06-14T08:49:25.868Z,5.67
2017-06-14T08:51:52.257Z,5.10
2017-06-14T08:54:22.387Z,4.30
2017-06-14T08:56:48.974Z,5.10
2017-06-14T08:59:15.448Z,5.07
2017-06-14T09:01:41.935Z,4.83
2017-06-14T09:04:08.500Z,5.67
2017-06-14T09:06:34.953Z,5.23
2017-06-14T09:09:01.355Z,5.30
2017-06-14T09:11:27.841Z,4.63
2017-06-14T09:13:54.967Z,4.90
2017-06-14T09:16:21.358Z,4.97
2017-06-14T09:18:47.741Z,4.53
2017-06-14T09:21:14.152Z,4.70
2017-06-14T09:23:40.518Z,3.40
2017-06-14T09:26:06.921Z,4.50
2017-06-14T09:28:33.355Z,3.60
2017-06-14T09:30:59.759Z,3.23
2017-06-14T09:33:26.160Z,3.70
2017-06-14T09:35:52.636Z,3.83
2017-06-14T09:38:19.033Z,4.30
2017-06-14T09:40:45.375Z,4.00
2017-06-14T09:43:11.720Z,4.50
2017-06-14T09:45:38.454Z,3.73
2017-06-14T09:48:04.958Z,3.10
2017-06-14T09:50:31.385Z,3.87
2017-06-14T09:52:57.764Z,4.73
2017-06-14T09:55:24.929Z,4.30
2017-06-14T09:57:51.284Z,4.50
2017-06-14T10:00:17.681Z,5.13
2017-06-14T10:02:44.127Z,4.33
2017-06-14T10:05:11.240Z,4.97
2017-06-14T10:07:37.651Z,4.23
2017-06-14T10:10:04.045Z,4.90
2017-06-14T10:12:30.404Z,6.43
2017-06-14T10:14:56.804Z,4.27
2017-06-14T10:17:23.228Z,4.83
2017-06-14T10:19:50.537Z,4.53
2017-06-14T10:22:16.935Z,5.10
2017-06-14T10:24:43.332Z,4.80
2017-06-14T10:27:09.759Z,4.03
2017-06-14T10:29:36.864Z,5.60
2017-06-14T10:32:04.119Z,4.93
2017-06-14T10:34:30.546Z,5.50
2017-06-14T10:36:56.932Z,6.87
2017-06-14T10:39:23.321Z,4.73
2017-06-14T10:41:49.695Z,5.57
2017-06-14T10:44:16.154Z,5.43
2017-06-14T10:46:42.646Z,5.47
2017-06-14T10:49:09.013Z,5.53
2017-06-14T10:51:35.526Z,5.20
2017-06-14T10:54:02.732Z,4.50
2017-06-14T10:56:29.120Z,5.37
2017-06-14T10:58:55.520Z,4.60
2017-06-14T11:01:21.936Z,6.17
2017-06-14T11:03:48.331Z,5.70
2017-06-14T11:06:14.717Z,5.60
2017-06-14T11:08:41.180Z,4.83
2017-06-14T11:11:07.711Z,5.13
2017-06-14T11:13:34.831Z,4.87
2017-06-14T11:16:01.260Z,5.10
2017-06-14T11:18:28.371Z,5.47
2017-06-14T11:20:54.741Z,6.40
2017-06-14T11:23:21.116Z,5.80
2017-06-14T11:25:47.547Z,4.90
2017-06-14T11:28:13.978Z,6.37
2017-06-14T11:30:40.363Z,5.93
2017-06-14T11:33:06.799Z,5.27
2017-06-14T11:35:33.275Z,5.27
2017-06-14T11:37:59.715Z,5.47
2017-06-14T11:40:26.163Z,5.00
2017-06-14T11:42:52.515Z,5.53
2017-06-14T11:45:18.860Z,4.60
2017-06-14T11:47:45.295Z,4.77
2017-06-14T11:50:12.379Z,4.50
2017-06-14T11:52:38.752Z,4.50
2017-06-14T11:55:05.187Z,4.90
2017-06-14T11:57:31.515Z,4.87
2017-06-14T11:59:57.867Z,4.47
2017-06-14T12:02:24.340Z,4.47
2017-06-14T12:04:50.700Z,3.60
2017-06-14T12:07:17.071Z,4.60
2017-06-14T12:09:44.245Z,4.00
2017-06-14T12:12:10.648Z,4.27
2017-06-14T12:14:37.784Z,4.03
2017-06-14T12:17:04.207Z,3.93
2017-06-14T12:19:31.366Z,4.73
2017-06-14T12:21:57.754Z,6.70
2017-06-14T12:24:24.304Z,5.53
2017-06-14T12:26:50.704Z,5.33
2017-06-14T12:29:17.114Z,4.87
2017-06-14T12:31:43.467Z,4.90
2017-06-14T12:34:09.848Z,4.67
2017-06-14T12:36:36.247Z,5.80
2017-06-14T12:39:02.948Z,3.70
2017-06-14T12:41:29.360Z,4.90
2017-06-14T12:43:55.807Z,3.67
2017-06-14T12:46:22.205Z,3.73
2017-06-14T12:48:48.615Z,3.40
2017-06-14T12:51:15.012Z,3.70
2017-06-14T12:53:41.360Z,3.67
2017-06-14T12:56:07.787Z,3.47
2017-06-14T12:58:34.159Z,3.40
2017-06-14T13:01:00.779Z,3.07
2017-06-14T13:03:27.151Z,3.60
2017-06-14T13:05:54.333Z,2.77
2017-06-14T13:08:20.703Z,3.27
2017-06-14T13:10:47.096Z,2.90
2017-06-14T13:13:13.483Z,2.97
2017-06-14T13:15:39.876Z,3.57
2017-06-14T13:18:06.252Z,3.30
2017-06-14T13:20:32.649Z,3.00
2017-06-14T13:22:59.041Z,3.40
2017-06-14T13:25:25.464Z,3.37
2017-06-14T13:27:51.798Z,2.80
2017-06-14T13:30:18.095Z,2.50
2017-06-14T13:32:44.371Z,2.30
2017-06-14T13:35:10.664Z,2.73
2017-06-14T13:37:37.051Z,2.50
2017-06-14T13:40:03.357Z,3.17
2017-06-14T13:42:29.651Z,2.67
2017-06-14T13:44:55.938Z,2.73
2017-06-14T13:47:22.967Z,3.10
2017-06-14T13:49:49.974Z,2.80
2017-06-14T13:52:16.254Z,3.30
2017-06-14T13:54:42.547Z,2.27
2017-06-14T13:57:08.820Z,3.10
2017-06-14T13:59:35.854Z,3.10
2017-06-14T14:02:02.187Z,3.17
2017-06-14T14:04:28.482Z,2.97
2017-06-14T14:06:54.774Z,3.30
2017-06-14T14:09:21.081Z,2.70
2017-06-14T14:11:47.511Z,2.97
2017-06-14T14:14:13.845Z,2.70
2017-06-14T14:16:40.151Z,3.33
2017-06-14T14:19:06.560Z,3.43
2017-06-14T14:21:32.895Z,3.13
2017-06-14T14:23:59.203Z,3.60
2017-06-14T14:26:25.487Z,4.20
2017-06-14T14:28:51.797Z,3.77
2017-06-14T14:31:18.179Z,2.80
2017-06-14T14:33:44.542Z,3.43
2017-06-14T14:36:10.848Z,2.90
2017-06-14T14:38:37.115Z,3.30
2017-06-14T14:41:04.132Z,2.67
2017-06-14T14:43:30.452Z,3.37
2017-06-14T14:45:56.775Z,3.00
2017-06-14T14:48:23.795Z,2.93
2017-06-14T14:50:50.111Z,2.83
2017-06-14T14:53:16.367Z,3.60
2017-06-14T14:55:42.691Z,3.30
2017-06-14T14:58:08.983Z,3.70
2017-06-14T15:00:35.267Z,3.60
2017-06-14T15:03:01.559Z,3.60
2017-06-14T15:05:27.867Z,3.73
2017-06-14T15:07:54.155Z,3.70
2017-06-14T15:10:21.249Z,3.37
2017-06-14T15:12:47.555Z,3.30
2017-06-14T15:15:14.555Z,3.13
2017-06-14T15:17:40.790Z,4.83
2017-06-14T15:20:07.188Z,3.57
2017-06-14T15:22:33.499Z,3.67
2017-06-14T15:24:59.783Z,3.40
2017-06-14T15:27:26.099Z,3.33
2017-06-14T15:29:53.276Z,3.97
2017-06-14T15:32:19.543Z,3.70
2017-06-14T15:34:46.402Z,3.43
2017-06-14T15:37:13.422Z,3.80
2017-06-14T15:39:39.758Z,3.37
2017-06-14T15:42:06.103Z,3.40
2017-06-14T15:44:32.388Z,3.53
2017-06-14T15:46:58.765Z,3.60
2017-06-14T15:49:25.100Z,3.67
2017-06-14T15:51:51.371Z,3.27
2017-06-14T15:54:17.708Z,3.23
2017-06-14T15:56:44.060Z,3.20
2017-06-14T15:59:11.544Z,3.60
2017-06-14T16:01:38.073Z,3.50
2017-06-14T16:04:04.522Z,3.33
2017-06-14T16:06:30.920Z,3.10
2017-06-14T16:08:57.367Z,3.20
2017-06-14T16:11:23.784Z,3.33
2017-06-14T16:13:50.225Z,2.70
2017-06-14T16:16:16.603Z,3.50
2017-06-14T16:18:43.024Z,3.60
2017-06-14T16:21:09.440Z,3.00
2017-06-14T16:23:35.843Z,2.80
2017-06-14T16:26:02.588Z,3.13
2017-06-14T16:28:29.007Z,3.43
2017-06-14T16:30:56.124Z,3.80
2017-06-14T16:33:22.520Z,3.60
2017-06-14T16:35:49.000Z,3.70
2017-06-14T16:38:15.396Z,3.80
2017-06-14T16:40:42.655Z,4.40
2017-06-14T16:43:09.038Z,4.10
2017-06-14T16:45:35.457Z,3.80
2017-06-14T16:48:01.905Z,4.20
2017-06-14T16:50:28.340Z,4.70
2017-06-14T16:52:54.716Z,4.23
2017-06-14T16:55:21.119Z,3.70
2017-06-14T16:57:48.208Z,4.50
2017-06-14T17:00:14.579Z,4.33
2017-06-14T17:02:41.016Z,4.20
2017-06-14T17:05:07.451Z,4.50
2017-06-14T17:07:33.829Z,4.57
2017-06-14T17:10:00.248Z,4.10
2017-06-14T17:12:26.608Z,4.83
2017-06-14T17:14:53.035Z,4.70
2017-06-14T17:17:19.423Z,4.70
2017-06-14T17:19:45.845Z,4.27
2017-06-14T17:22:12.227Z,4.80
2017-06-14T17:24:38.647Z,4.20
2017-06-14T17:27:05.043Z,4.33
2017-06-14T17:29:32.163Z,4.50
2017-06-14T17:31:59.268Z,4.40
2017-06-14T17:34:25.651Z,4.37
2017-06-14T17:36:52.064Z,4.77
2017-06-14T17:39:18.431Z,5.13
2017-06-14T17:41:44.763Z,4.40
2017-06-14T17:44:11.128Z,4.40
2017-06-14T17:46:37.540Z,4.40
2017-06-14T17:49:03.928Z,4.80
2017-06-14T17:51:30.337Z,4.13
2017-06-14T17:53:56.699Z,4.23
2017-06-14T17:56:23.076Z,4.10
2017-06-14T17:58:49.488Z,4.80
2017-06-14T18:01:15.888Z,4.57
2017-06-14T18:03:42.291Z,4.70
2017-06-14T18:06:08.671Z,4.63
2017-06-14T18:08:35.028Z,4.63
2017-06-14T18:11:01.440Z,4.33
2017-06-14T18:13:27.807Z,4.20
2017-06-14T18:15:54.174Z,4.37
2017-06-14T18:18:20.653Z,4.40
2017-06-14T18:20:47.048Z,3.97
2017-06-14T18:23:13.464Z,3.97
2017-06-14T18:25:42.113Z,4.33
2017-06-14T18:28:08.491Z,4.27
2017-06-14T18:30:34.894Z,3.73
2017-06-14T18:33:01.287Z,5.10
2017-06-14T18:35:27.737Z,4.70
2017-06-14T18:37:54.172Z,4.70
2017-06-14T18:40:20.576Z,5.93
2017-06-14T18:42:47.044Z,4.53
2017-06-14T18:45:13.495Z,4.60
2017-06-14T18:47:39.972Z,3.80
2017-06-14T18:50:06.321Z,3.97
2017-06-14T18:52:32.728Z,4.60
2017-06-14T18:54:59.904Z,4.70
2017-06-14T18:57:26.334Z,7.27
2017-06-14T18:59:52.786Z,9.60
2017-06-14T19:02:19.199Z,8.20
2017-06-14T19:04:46.296Z,8.50
2017-06-14T19:07:12.723Z,8.23
2017-06-14T19:09:39.116Z,9.33
2017-06-14T19:12:05.485Z,8.50
2017-06-14T19:14:31.886Z,8.23
2017-06-14T19:16:58.256Z,9.60
2017-06-14T19:19:24.630Z,9.50
2017-06-14T19:21:51.040Z,9.60
2017-06-14T19:24:18.457Z,9.53
2017-06-14T19:26:51.737Z,9.23
2017-06-14T19:29:18.204Z,8.67
2017-06-14T19:31:44.572Z,8.97
2017-06-14T19:34:11.737Z,8.80
2017-06-14T19:36:44.202Z,8.43
2017-06-14T19:39:10.608Z,8.37
2017-06-14T19:41:37.805Z,9.50
2017-06-14T19:44:04.241Z,8.67
2017-06-14T19:46:30.639Z,9.13
2017-06-14T19:48:57.052Z,9.23
2017-06-14T19:51:23.455Z,10.00
2017-06-14T19:53:49.859Z,9.67
2017-06-14T19:56:16.247Z,8.60
2017-06-14T19:58:42.716Z,8.23
2017-06-14T20:01:09.141Z,8.83
2017-06-14T20:03:36.319Z,8.97
2017-06-14T20:06:02.929Z,7.57
2017-06-14T20:08:29.491Z,8.03
2017-06-14T20:10:56.104Z,8.47
2017-06-14T20:13:22.567Z,9.07
2017-06-14T20:15:49.052Z,9.50
2017-06-14T20:18:15.661Z,8.07
2017-06-14T20:20:42.279Z,10.27
2017-06-14T20:23:08.717Z,8.40
2017-06-14T20:25:35.489Z,8.47
2017-06-14T20:28:02.341Z,9.60
2017-06-14T20:30:28.980Z,9.60
2017-06-14T20:32:55.991Z,9.60
2017-06-14T20:35:22.551Z,8.33
2017-06-14T20:37:49.180Z,9.07
2017-06-14T20:40:15.753Z,9.07
2017-06-14T20:42:42.471Z,8.30
2017-06-14T20:45:09.238Z,7.73
2017-06-14T20:47:35.930Z,8.10
2017-06-14T20:50:02.788Z,7.70
2017-06-14T20:52:29.494Z,8.03
2017-06-14T20:54:55.996Z,7.90
2017-06-14T20:57:23.548Z,8.07
2017-06-14T20:59:51.321Z,7.70
2017-06-14T21:02:18.004Z,8.23
2017-06-14T21:04:44.723Z,7.77
2017-06-14T21:07:11.938Z,6.43
2017-06-14T21:09:38.473Z,7.60
2017-06-14T21:12:05.019Z,8.10
2017-06-14T21:14:31.536Z,8.90
2017-06-14T21:16:57.999Z,7.53
2017-06-14T21:19:25.228Z,8.93
2017-06-14T21:21:51.611Z,7.83
2017-06-14T21:24:18.000Z,8.17
2017-06-14T21:26:45.207Z,7.90
2017-06-14T21:29:11.616Z,8.07
2017-06-14T21:31:39.228Z,7.50
2017-06-14T21:34:05.919Z,8.43
2017-06-14T21:36:32.432Z,8.43
2017-06-14T21:38:58.856Z,7.60
2017-06-14T21:41:26.162Z,7.33
2017-06-14T21:43:52.621Z,7.73
2017-06-14T21:46:19.068Z,7.80
2017-06-14T21:48:45.532Z,8.17
2017-06-14T21:51:12.654Z,8.00
2017-06-14T21:53:39.072Z,7.50
2017-06-14T21:56:05.484Z,8.00
2017-06-14T21:58:31.879Z,7.27
2017-06-14T22:00:58.300Z,6.97
2017-06-14T22:03:24.715Z,7.63
2017-06-14T22:05:51.127Z,7.70
2017-06-14T22:08:17.546Z,6.30
2017-06-14T22:10:44.025Z,7.47
2017-06-14T22:13:10.396Z,7.00
2017-06-14T22:15:36.796Z,7.30
2017-06-14T22:18:03.252Z,7.10
2017-06-14T22:20:29.988Z,6.67
2017-06-14T22:22:56.573Z,6.53
2017-06-14T22:25:22.984Z,6.87
2017-06-14T22:27:49.411Z,7.17
2017-06-14T22:30:15.828Z,7.27
2017-06-14T22:32:42.243Z,7.20
2017-06-14T22:35:08.631Z,6.67
2017-06-14T22:37:35.105Z,6.83
2017-06-14T22:40:01.623Z,6.53
2017-06-14T22:42:28.019Z,6.13
2017-06-14T22:44:54.424Z,6.63
2017-06-14T22:47:20.936Z,6.93
2017-06-14T22:49:47.383Z,6.43
2017-06-14T22:52:13.891Z,6.27
2017-06-14T22:54:40.315Z,6.30
2017-06-14T22:57:06.827Z,6.17
2017-06-14T22:59:33.244Z,5.33
2017-06-14T23:01:59.644Z,5.70
2017-06-14T23:04:26.044Z,6.27
2017-06-14T23:06:52.459Z,6.50
2017-06-14T23:09:18.906Z,7.00
2017-06-14T23:11:45.252Z,6.67
2017-06-14T23:14:11.667Z,7.47
2017-06-14T23:16:38.474Z,6.83
2017-06-14T23:19:04.860Z,6.47
2017-06-14T23:21:31.256Z,7.47
2017-06-14T23:23:57.611Z,7.20
2017-06-14T23:26:24.000Z,6.43
2017-06-14T23:28:50.413Z,6.60
2017-06-14T23:31:16.784Z,6.37
2017-06-14T23:33:43.176Z,7.73
2017-06-14T23:36:09.611Z,7.03
2017-06-14T23:38:36.020Z,6.43
2017-06-14T23:41:02.403Z,7.00
2017-06-14T23:43:28.834Z,6.97
2017-06-14T23:45:55.230Z,6.33
2017-06-14T23:48:21.591Z,6.70
2017-06-14T23:50:48.008Z,6.57
2017-06-14T23:53:14.411Z,5.97
2017-06-14T23:55:40.812Z,6.47
2017-06-14T23:58:07.229Z,6.73
